Time;durP1;ratioP1;P1;durP2;ratioP2;P2;SDS_P1;SDS_P2;PMS_P1;PMS_P2;Temp;Humidity;BMP_temperature;BMP_pressure;BME280_temperature;BME280_humidity;BME280_pressure;Samples;Min_cycle;Max_cycle;Signal;HPM_P1;HPM_P2
2021/09/19 00:02:18;;;;;;;6.30;5.10;;;10.10;99.90;;;;;;4982345;28;20669;-58
2021/09/19 00:04:44;;;;;;;9.97;5.93;;;10.10;99.90;;;;;;4968858;28;20227;-59
2021/09/19 00:07:09;;;;;;;7.93;5.30;;;10.10;99.90;;;;;;4980561;28;20417;-59
2021/09/19 00:09:35;;;;;;;8.30;5.70;;;10.10;99.90;;;;;;4982182;28;20264;-58
2021/09/19 00:12:01;;;;;;;6.03;4.93;;;10.00;99.90;;;;;;4982745;28;20192;-58
2021/09/19 00:14:28;;;;;;;9.20;5.40;;;10.00;99.90;;;;;;4984409;28;20441;-58
2021/09/19 00:16:54;;;;;;;7.53;6.00;;;10.00;99.90;;;;;;4985169;28;20477;-58
2021/09/19 00:19:20;;;;;;;8.30;5.63;;;10.00;99.90;;;;;;4983716;28;20440;-58
2021/09/19 00:21:46;;;;;;;5.67;5.07;;;10.00;99.90;;;;;;4984442;28;20254;-58
2021/09/19 00:24:12;;;;;;;8.27;5.90;;;9.90;99.90;;;;;;4987813;28;20193;-59
2021/09/19 00:26:37;;;;;;;6.03;5.43;;;9.90;99.90;;;;;;4984790;28;20441;-59
2021/09/19 00:29:03;;;;;;;9.73;5.80;;;9.90;99.90;;;;;;4989902;28;20493;-59
2021/09/19 00:31:30;;;;;;;6.40;5.50;;;9.90;99.90;;;;;;4991942;28;20177;-58
2021/09/19 00:33:56;;;;;;;14.13;5.80;;;9.90;99.90;;;;;;4990563;28;20460;-59
2021/09/19 00:36:22;;;;;;;8.70;5.67;;;9.90;99.90;;;;;;4992135;28;20455;-60
2021/09/19 00:38:47;;;;;;;9.73;6.03;;;9.80;99.90;;;;;;4993146;28;20181;-59
2021/09/19 00:41:13;;;;;;;7.90;5.53;;;9.80;99.90;;;;;;4991397;28;20177;-59
2021/09/19 00:43:39;;;;;;;9.37;5.90;;;9.80;99.90;;;;;;4991304;28;20336;-59
2021/09/19 00:46:05;;;;;;;10.87;5.73;;;9.80;99.90;;;;;;4991842;28;20522;-59
2021/09/19 00:48:30;;;;;;;5.73;5.10;;;9.80;99.90;;;;;;4992128;28;20189;-59
2021/09/19 00:50:56;;;;;;;7.83;5.23;;;9.80;99.90;;;;;;4991623;28;20558;-58
2021/09/19 00:53:22;;;;;;;7.93;5.90;;;9.70;99.90;;;;;;4990628;28;20208;-59
2021/09/19 00:55:49;;;;;;;6.37;5.37;;;9.70;99.90;;;;;;4992101;28;20177;-58
2021/09/19 00:58:17;;;;;;;6.87;5.40;;;9.70;99.90;;;;;;4991377;28;20739;-59
2021/09/19 01:00:48;;;;;;;7.60;5.97;;;9.70;99.90;;;;;;4991702;28;20412;-59
2021/09/19 01:03:15;;;;;;;6.03;5.27;;;9.70;99.90;;;;;;4973961;28;20747;-59
2021/09/19 01:05:43;;;;;;;8.93;6.00;;;9.80;99.90;;;;;;4991808;28;20452;-59
2021/09/19 01:08:09;;;;;;;9.23;6.03;;;9.70;99.90;;;;;;4973565;28;20424;-59
2021/09/19 01:10:35;;;;;;;9.50;5.47;;;9.70;99.90;;;;;;4992316;28;20408;-59
2021/09/19 01:13:01;;;;;;;8.93;5.70;;;9.70;99.90;;;;;;4971971;28;21076;-58
2021/09/19 01:15:27;;;;;;;8.00;5.83;;;9.70;99.90;;;;;;4990618;28;20442;-59
2021/09/19 01:17:53;;;;;;;6.37;5.50;;;9.70;99.90;;;;;;4998319;28;20548;-59
2021/09/19 01:20:19;;;;;;;9.33;5.77;;;9.70;99.90;;;;;;4989265;28;20201;-59
2021/09/19 01:23:03;;;;;;;10.40;5.90;;;9.60;99.90;;;;;;4990318;28;20463;-58
2021/09/19 01:25:29;;;;;;;8.43;5.60;;;9.60;99.90;;;;;;4980291;28;20175;-58
2021/09/19 01:27:55;;;;;;;7.77;5.30;;;9.60;99.90;;;;;;4991406;28;20495;-59
2021/09/19 01:30:22;;;;;;;5.70;4.93;;;9.60;99.90;;;;;;4990185;28;20436;-58
2021/09/19 01:32:47;;;;;;;7.37;6.03;;;9.60;99.90;;;;;;4972225;28;20999;-59
2021/09/19 01:35:13;;;;;;;6.20;5.03;;;9.60;99.90;;;;;;4986812;28;20523;-58
2021/09/19 01:37:39;;;;;;;10.33;5.83;;;9.60;99.90;;;;;;4971892;28;20209;-58
2021/09/19 01:40:07;;;;;;;6.73;5.60;;;9.60;99.90;;;;;;4966492;28;20245;-59
2021/09/19 01:42:33;;;;;;;8.60;6.10;;;9.60;99.90;;;;;;4984195;28;20240;-59
2021/09/19 01:45:00;;;;;;;11.13;5.50;;;9.60;99.90;;;;;;4972428;28;20424;-59
2021/09/19 01:47:25;;;;;;;7.70;5.40;;;9.60;99.90;;;;;;4988780;28;20440;-58
2021/09/19 01:49:51;;;;;;;6.57;5.23;;;9.60;99.90;;;;;;4989956;28;20420;-59
2021/09/19 01:52:19;;;;;;;8.63;5.60;;;9.50;99.90;;;;;;4971099;28;20185;-58
2021/09/19 01:54:45;;;;;;;9.77;5.47;;;9.50;99.90;;;;;;4983588;28;20455;-58
2021/09/19 01:57:17;;;;;;;7.17;5.17;;;9.50;99.90;;;;;;4989571;28;20929;-58
2021/09/19 01:59:44;;;;;;;8.90;5.53;;;9.50;99.90;;;;;;4966429;28;20436;-58
2021/09/19 02:02:10;;;;;;;7.37;5.73;;;9.40;99.90;;;;;;4969859;28;20884;-59
2021/09/19 02:04:39;;;;;;;7.33;5.37;;;9.40;99.90;;;;;;4969304;28;21082;-60
2021/09/19 02:07:05;;;;;;;6.27;5.63;;;9.40;99.90;;;;;;4986719;28;20661;-58
2021/09/19 02:09:30;;;;;;;6.83;5.00;;;9.40;99.90;;;;;;4986058;28;20441;-58
2021/09/19 02:11:56;;;;;;;5.77;5.17;;;9.30;99.90;;;;;;4991994;28;20208;-59
2021/09/19 02:14:22;;;;;;;7.20;6.17;;;9.30;99.90;;;;;;4976332;28;20682;-60
2021/09/19 02:16:47;;;;;;;11.57;6.13;;;9.30;99.90;;;;;;4970888;28;20201;-57
2021/09/19 02:19:13;;;;;;;9.07;5.77;;;9.30;99.90;;;;;;4988352;28;20169;-59
2021/09/19 02:21:39;;;;;;;9.70;6.33;;;9.30;99.90;;;;;;4988934;28;20177;-58
2021/09/19 02:24:04;;;;;;;10.33;6.40;;;9.20;99.90;;;;;;4975416;28;20251;-59
2021/09/19 02:26:30;;;;;;;7.03;6.20;;;9.20;99.90;;;;;;4985963;28;20700;-59
2021/09/19 02:28:56;;;;;;;10.03;6.23;;;9.20;99.90;;;;;;4990668;28;20693;-59
2021/09/19 02:31:22;;;;;;;11.00;6.40;;;9.20;99.90;;;;;;4989301;28;20181;-59
2021/09/19 02:33:47;;;;;;;8.17;6.40;;;9.20;99.90;;;;;;4989539;28;20597;-59
2021/09/19 02:36:13;;;;;;;8.40;6.43;;;9.20;99.90;;;;;;5002031;28;20546;-58
2021/09/19 02:38:39;;;;;;;8.03;6.10;;;9.20;99.90;;;;;;4995505;28;20184;-58
2021/09/19 02:41:04;;;;;;;8.73;6.20;;;9.20;99.90;;;;;;4989498;28;20185;-58
2021/09/19 02:43:30;;;;;;;14.17;7.00;;;9.20;99.90;;;;;;4987145;28;20213;-59
2021/09/19 02:45:56;;;;;;;12.63;6.97;;;9.20;99.90;;;;;;4971584;28;20255;-59
2021/09/19 02:48:21;;;;;;;14.83;6.83;;;9.10;99.90;;;;;;4986831;28;20689;-58
2021/09/19 02:50:47;;;;;;;9.77;7.00;;;9.10;99.90;;;;;;4981497;28;20307;-58
2021/09/19 02:53:13;;;;;;;9.87;6.87;;;9.10;99.90;;;;;;4988537;28;20198;-58
2021/09/19 02:55:39;;;;;;;10.43;7.03;;;9.10;99.90;;;;;;4990400;28;20424;-58
2021/09/19 02:58:04;;;;;;;8.87;6.90;;;9.10;99.90;;;;;;4987438;28;20259;-59
2021/09/19 03:00:32;;;;;;;10.00;7.40;;;9.10;99.90;;;;;;4987233;28;20188;-59
2021/09/19 03:02:58;;;;;;;10.10;7.17;;;9.10;99.90;;;;;;4988026;28;20193;-58
2021/09/19 03:05:23;;;;;;;13.93;7.57;;;9.10;99.90;;;;;;4985067;28;20425;-60
2021/09/19 03:07:52;;;;;;;8.50;7.20;;;9.10;99.90;;;;;;4982308;28;20428;-58
2021/09/19 03:10:17;;;;;;;12.30;6.57;;;9.10;99.90;;;;;;4971064;28;20177;-59
2021/09/19 03:12:43;;;;;;;9.40;7.40;;;9.10;99.90;;;;;;4988447;28;20460;-59
2021/09/19 03:15:10;;;;;;;10.83;7.40;;;9.10;99.90;;;;;;4988046;28;20179;-59
2021/09/19 03:17:35;;;;;;;13.40;7.77;;;9.00;99.90;;;;;;4995629;28;20200;-59
2021/09/19 03:20:01;;;;;;;8.77;7.30;;;9.00;99.90;;;;;;4987471;28;20424;-57
2021/09/19 03:22:27;;;;;;;9.73;7.30;;;9.00;99.90;;;;;;4987323;28;20173;-59
2021/09/19 03:24:52;;;;;;;12.47;7.60;;;9.10;99.90;;;;;;4988541;28;20182;-58
2021/09/19 03:27:18;;;;;;;11.37;7.93;;;9.10;99.90;;;;;;5001080;28;20255;-59
2021/09/19 03:29:43;;;;;;;9.97;6.43;;;9.10;99.90;;;;;;4987044;28;20303;-59
2021/09/19 03:32:09;;;;;;;10.90;6.93;;;9.10;99.90;;;;;;4987054;28;20201;-58
2021/09/19 03:34:35;;;;;;;9.70;7.03;;;9.10;99.90;;;;;;4988265;28;20276;-59
2021/09/19 03:37:02;;;;;;;8.77;7.03;;;9.00;99.90;;;;;;4988556;28;20290;-59
2021/09/19 03:39:27;;;;;;;10.30;6.83;;;9.00;99.90;;;;;;4978706;28;20174;-58
2021/09/19 03:41:53;;;;;;;11.97;6.30;;;8.90;99.90;;;;;;4983584;28;20963;-58
2021/09/19 03:44:19;;;;;;;8.70;6.30;;;8.90;99.90;;;;;;4972810;28;20708;-60
2021/09/19 03:46:44;;;;;;;8.90;6.00;;;8.90;99.90;;;;;;4988495;28;20625;-59
2021/09/19 03:49:10;;;;;;;9.40;6.53;;;8.90;99.90;;;;;;4961904;28;20189;-58
2021/09/19 03:51:36;;;;;;;8.57;6.50;;;8.90;99.90;;;;;;4982182;28;20185;-59
2021/09/19 03:54:01;;;;;;;8.70;6.33;;;8.90;99.90;;;;;;4993118;28;20232;-59
2021/09/19 03:56:28;;;;;;;8.20;5.33;;;8.90;99.90;;;;;;4970433;28;20284;-58
2021/09/19 03:58:53;;;;;;;7.90;6.30;;;8.90;99.90;;;;;;4990357;28;20173;-59
2021/09/19 04:01:19;;;;;;;9.03;6.63;;;8.90;99.90;;;;;;4988419;28;20959;-57
2021/09/19 04:03:45;;;;;;;8.80;6.30;;;8.80;99.90;;;;;;4974549;28;20216;-59
2021/09/19 04:06:10;;;;;;;9.53;6.50;;;8.80;99.90;;;;;;4988175;28;20263;-59
2021/09/19 04:08:36;;;;;;;10.53;6.80;;;8.80;99.90;;;;;;4993262;28;20181;-58
2021/09/19 04:11:02;;;;;;;9.80;6.57;;;8.80;99.90;;;;;;4990818;28;20173;-58
2021/09/19 04:13:27;;;;;;;8.97;6.60;;;8.80;99.90;;;;;;5005917;28;20283;-59
2021/09/19 04:15:53;;;;;;;8.97;6.33;;;8.80;99.90;;;;;;4975315;28;20174;-59
2021/09/19 04:18:19;;;;;;;10.00;6.93;;;8.80;99.90;;;;;;4997593;28;20177;-59
2021/09/19 04:20:45;;;;;;;7.13;5.93;;;8.80;99.90;;;;;;4992002;28;20184;-59
2021/09/19 04:23:10;;;;;;;10.03;6.40;;;8.80;99.90;;;;;;4974104;28;20291;-60
2021/09/19 04:25:36;;;;;;;9.57;6.50;;;8.80;99.90;;;;;;5002248;28;20863;-59
2021/09/19 04:28:03;;;;;;;9.23;6.90;;;8.80;99.90;;;;;;4991890;28;20184;-57
2021/09/19 04:30:28;;;;;;;9.37;7.00;;;8.80;99.90;;;;;;4992394;28;20177;-59
2021/09/19 04:32:54;;;;;;;8.50;6.43;;;8.80;99.90;;;;;;4976084;28;20949;-59
2021/09/19 04:35:20;;;;;;;10.40;6.60;;;8.80;99.90;;;;;;4997239;28;20184;-59
2021/09/19 04:37:45;;;;;;;10.43;7.27;;;8.80;99.90;;;;;;4992863;28;20684;-58
2021/09/19 04:40:12;;;;;;;12.20;8.87;;;8.70;99.90;;;;;;4964143;28;20593;-59
2021/09/19 04:42:37;;;;;;;10.40;7.90;;;8.70;99.90;;;;;;4992201;28;20204;-59
2021/09/19 04:45:06;;;;;;;15.40;9.43;;;8.70;99.90;;;;;;4975541;28;20432;-59
2021/09/19 04:47:31;;;;;;;12.00;8.50;;;8.70;99.90;;;;;;4991894;28;20195;-58
2021/09/19 04:49:57;;;;;;;14.40;9.60;;;8.70;99.90;;;;;;4991077;28;20436;-59
2021/09/19 04:52:23;;;;;;;16.03;8.80;;;8.80;99.90;;;;;;4990597;28;20268;-60
2021/09/19 04:54:48;;;;;;;13.33;8.70;;;8.80;99.90;;;;;;4992430;28;20894;-59
2021/09/19 04:57:14;;;;;;;15.87;9.87;;;8.80;99.90;;;;;;4992117;28;20377;-59
2021/09/19 04:59:40;;;;;;;11.60;7.60;;;8.80;99.90;;;;;;4992196;28;20209;-58
2021/09/19 05:02:06;;;;;;;18.87;8.30;;;8.80;99.90;;;;;;5004224;28;20630;-58
2021/09/19 05:04:32;;;;;;;15.10;8.90;;;8.80;99.90;;;;;;4999067;28;20683;-59
2021/09/19 05:06:57;;;;;;;11.43;8.40;;;8.80;99.90;;;;;;4991730;28;20188;-60
2021/09/19 05:09:23;;;;;;;16.30;8.23;;;8.80;99.90;;;;;;4991094;28;20432;-58
2021/09/19 05:11:49;;;;;;;11.40;8.90;;;8.70;99.90;;;;;;4991920;28;20235;-59
2021/09/19 05:14:14;;;;;;;12.77;9.07;;;8.70;99.90;;;;;;4966067;28;20460;-59
2021/09/19 05:16:40;;;;;;;14.53;9.00;;;8.70;99.90;;;;;;5002039;28;20290;-59
2021/09/19 05:19:06;;;;;;;15.33;9.47;;;8.70;99.90;;;;;;5003449;28;20182;-59
2021/09/19 05:21:33;;;;;;;15.63;9.87;;;8.70;99.90;;;;;;4973436;28;20181;-59
2021/09/19 05:23:59;;;;;;;24.97;10.97;;;8.70;99.90;;;;;;4991522;28;20693;-59
2021/09/19 05:26:25;;;;;;;15.57;10.63;;;8.70;99.90;;;;;;4991269;28;20436;-59
2021/09/19 05:28:51;;;;;;;14.00;10.27;;;8.70;99.90;;;;;;4991317;28;20177;-58
2021/09/19 05:31:17;;;;;;;10.33;8.20;;;8.70;99.90;;;;;;4990890;28;20431;-59
2021/09/19 05:33:42;;;;;;;14.50;9.07;;;8.70;99.90;;;;;;4991413;28;20207;-59
2021/09/19 05:36:08;;;;;;;12.70;8.03;;;8.70;99.90;;;;;;4990856;28;20654;-58
2021/09/19 05:38:35;;;;;;;11.83;7.70;;;8.70;99.90;;;;;;4983528;28;20561;-58
2021/09/19 05:41:00;;;;;;;14.90;9.20;;;8.70;99.90;;;;;;4991655;28;20774;-57
2021/09/19 05:43:26;;;;;;;17.43;10.07;;;8.80;99.90;;;;;;4992138;28;20527;-58
2021/09/19 05:45:52;;;;;;;12.80;9.10;;;8.80;99.90;;;;;;4974084;28;20186;-59
2021/09/19 05:48:17;;;;;;;15.10;10.23;;;8.80;99.90;;;;;;4972528;28;20173;-59
2021/09/19 05:50:43;;;;;;;14.30;9.97;;;8.80;99.90;;;;;;4991280;28;20264;-60
2021/09/19 05:53:09;;;;;;;17.97;10.37;;;8.80;99.90;;;;;;4990971;28;20601;-59
2021/09/19 05:55:34;;;;;;;17.90;11.77;;;8.80;99.90;;;;;;4988759;28;20178;-60
2021/09/19 05:58:00;;;;;;;18.20;11.50;;;8.90;99.90;;;;;;4991705;28;20204;-57
2021/09/19 06:00:26;;;;;;;19.30;10.97;;;9.00;99.90;;;;;;4999655;28;20193;-60
2021/09/19 06:02:51;;;;;;;15.90;10.57;;;9.10;99.90;;;;;;4998380;28;20200;-59
2021/09/19 06:05:18;;;;;;;12.80;9.90;;;9.20;99.90;;;;;;4989049;28;20181;-59
2021/09/19 06:07:43;;;;;;;13.60;9.50;;;9.30;99.90;;;;;;4991252;28;20188;-59
2021/09/19 06:10:09;;;;;;;19.70;9.80;;;9.40;99.90;;;;;;4992826;28;20420;-58
2021/09/19 06:12:35;;;;;;;15.23;10.30;;;9.50;99.90;;;;;;4991370;28;20181;-58
2021/09/19 06:15:01;;;;;;;14.37;9.50;;;9.60;99.90;;;;;;4990284;28;20428;-58
2021/09/19 06:17:26;;;;;;;13.63;9.37;;;9.70;99.90;;;;;;4991602;28;20638;-59
2021/09/19 06:19:52;;;;;;;13.87;9.10;;;9.80;99.90;;;;;;4988778;28;20597;-58
2021/09/19 06:22:18;;;;;;;14.90;10.00;;;9.80;99.90;;;;;;4988888;28;20181;-57
2021/09/19 06:24:44;;;;;;;16.40;8.70;;;9.90;99.90;;;;;;4992201;28;20259;-58
2021/09/19 06:27:14;;;;;;;16.30;9.70;;;9.90;99.90;;;;;;4979045;28;20420;-57
2021/09/19 06:29:40;;;;;;;12.70;9.30;;;10.00;99.90;;;;;;5006348;28;20451;-57
2021/09/19 06:32:09;;;;;;;15.20;10.43;;;10.00;99.90;;;;;;4985962;28;20535;-57
2021/09/19 06:34:36;;;;;;;16.13;9.80;;;10.10;99.90;;;;;;4992002;28;20487;-58
2021/09/19 06:37:02;;;;;;;13.87;10.33;;;10.10;99.90;;;;;;5003419;28;20447;-57
2021/09/19 06:39:28;;;;;;;16.53;10.83;;;10.30;99.90;;;;;;4989409;28;20459;-60
2021/09/19 06:41:53;;;;;;;14.53;10.50;;;10.40;99.90;;;;;;4994985;28;20451;-59
2021/09/19 06:44:19;;;;;;;18.33;11.50;;;10.60;99.90;;;;;;4996299;28;20210;-59
2021/09/19 06:46:45;;;;;;;16.97;11.07;;;10.70;99.90;;;;;;5001847;28;20196;-58
2021/09/19 06:49:11;;;;;;;19.37;11.13;;;10.90;99.90;;;;;;4989278;28;20181;-58
2021/09/19 06:51:36;;;;;;;16.47;11.40;;;11.00;99.90;;;;;;4989730;28;20482;-59
2021/09/19 06:54:02;;;;;;;19.10;12.90;;;11.10;99.90;;;;;;4998795;28;20254;-58
2021/09/19 06:56:28;;;;;;;18.63;11.10;;;11.30;99.90;;;;;;4989903;28;20217;-58
2021/09/19 06:58:55;;;;;;;16.90;12.20;;;11.40;99.90;;;;;;4990077;28;20479;-59
2021/09/19 07:01:21;;;;;;;16.40;11.77;;;11.50;99.90;;;;;;4989076;28;20650;-56
2021/09/19 07:03:47;;;;;;;17.87;12.00;;;11.50;99.90;;;;;;5000831;28;20531;-58
2021/09/19 07:06:13;;;;;;;15.87;11.80;;;11.60;99.90;;;;;;4994416;28;20503;-58
2021/09/19 07:08:39;;;;;;;20.03;13.60;;;11.60;99.90;;;;;;4978367;28;20272;-57
2021/09/19 07:11:04;;;;;;;18.77;11.80;;;11.70;99.90;;;;;;4977010;28;20181;-57
2021/09/19 07:13:30;;;;;;;23.20;13.67;;;11.70;99.90;;;;;;4996856;28;20207;-58
2021/09/19 07:15:55;;;;;;;16.60;11.80;;;11.80;99.90;;;;;;4983324;28;20252;-57
2021/09/19 07:18:25;;;;;;;18.50;12.07;;;11.90;99.90;;;;;;4984170;28;20313;-59
2021/09/19 07:20:54;;;;;;;18.80;12.60;;;12.00;99.90;;;;;;4987806;28;20185;-59
2021/09/19 07:23:21;;;;;;;18.90;12.70;;;12.10;99.90;;;;;;4986087;28;20452;-59
2021/09/19 07:25:48;;;;;;;19.00;13.30;;;12.20;99.90;;;;;;4971803;28;20436;-58
2021/09/19 07:28:14;;;;;;;21.27;13.67;;;12.30;99.90;;;;;;4983704;28;20432;-59
2021/09/19 07:30:40;;;;;;;24.00;14.40;;;12.40;99.90;;;;;;4976677;28;21002;-59
2021/09/19 07:33:07;;;;;;;22.83;14.83;;;12.50;99.90;;;;;;4980771;28;20456;-60
2021/09/19 07:35:33;;;;;;;22.37;13.90;;;12.60;99.90;;;;;;4997833;28;20475;-58
2021/09/19 07:37:59;;;;;;;19.77;12.37;;;12.70;99.90;;;;;;4977431;28;20456;-56
2021/09/19 07:40:25;;;;;;;22.73;15.00;;;12.90;99.90;;;;;;4967265;28;20448;-59
2021/09/19 07:42:51;;;;;;;20.07;13.13;;;12.90;99.90;;;;;;4985313;28;20477;-59
2021/09/19 07:45:17;;;;;;;19.60;13.50;;;13.00;99.90;;;;;;4986007;28;20444;-60
2021/09/19 07:47:44;;;;;;;21.20;13.87;;;13.10;99.90;;;;;;4976121;28;20436;-58
2021/09/19 07:50:10;;;;;;;23.63;13.60;;;13.10;99.90;;;;;;4989142;28;20428;-58
2021/09/19 07:52:36;;;;;;;17.70;12.77;;;13.30;99.90;;;;;;4977785;28;20442;-58
2021/09/19 07:55:03;;;;;;;18.57;12.90;;;13.40;99.90;;;;;;4989747;28;20436;-58
2021/09/19 07:57:29;;;;;;;20.07;12.60;;;13.50;99.90;;;;;;4986781;28;20562;-60
2021/09/19 07:59:55;;;;;;;18.07;12.43;;;13.60;99.90;;;;;;4990051;28;20955;-54
2021/09/19 08:02:22;;;;;;;21.00;14.47;;;13.60;99.90;;;;;;4986048;28;20383;-57
2021/09/19 08:04:48;;;;;;;17.77;11.00;;;13.80;99.90;;;;;;4980676;28;20432;-59
2021/09/19 08:07:14;;;;;;;19.20;13.33;;;13.80;99.90;;;;;;4967995;28;20432;-59
2021/09/19 08:09:40;;;;;;;20.00;13.03;;;13.90;99.90;;;;;;4983070;28;20539;-58
2021/09/19 08:12:06;;;;;;;16.37;12.20;;;14.00;99.90;;;;;;4979973;28;20447;-62
2021/09/19 08:14:32;;;;;;;18.77;12.43;;;14.00;99.90;;;;;;4980424;28;20217;-60
2021/09/19 08:16:59;;;;;;;19.13;13.10;;;14.10;99.90;;;;;;4982072;28;20465;-58
2021/09/19 08:19:26;;;;;;;19.63;13.07;;;14.20;99.90;;;;;;4984044;28;20436;-60
2021/09/19 08:21:52;;;;;;;17.10;12.83;;;14.40;99.90;;;;;;4979607;28;20447;-61
2021/09/19 08:24:18;;;;;;;17.40;12.33;;;14.50;99.90;;;;;;4984055;28;20989;-61
2021/09/19 08:26:44;;;;;;;18.10;12.80;;;14.60;99.90;;;;;;4989397;28;20436;-60
2021/09/19 08:29:11;;;;;;;18.83;12.20;;;14.60;99.90;;;;;;4992897;28;20478;-57
2021/09/19 08:31:38;;;;;;;18.67;12.23;;;14.70;99.10;;;;;;4967335;28;20937;-59
2021/09/19 08:34:04;;;;;;;21.70;11.87;;;14.80;98.80;;;;;;4986074;28;20925;-58
2021/09/19 08:36:30;;;;;;;17.67;11.67;;;14.90;98.70;;;;;;4981553;28;20460;-60
2021/09/19 08:38:56;;;;;;;15.17;11.83;;;14.90;96.90;;;;;;4985601;28;20436;-59
2021/09/19 08:41:22;;;;;;;15.17;11.10;;;15.00;97.00;;;;;;4977501;28;20833;-59
2021/09/19 08:43:49;;;;;;;17.30;11.67;;;15.10;96.60;;;;;;4961907;28;20653;-59
2021/09/19 08:46:16;;;;;;;15.03;10.57;;;15.20;97.50;;;;;;4983746;28;20436;-59
2021/09/19 08:48:42;;;;;;;17.20;11.80;;;15.40;97.30;;;;;;4986241;28;20440;-60
2021/09/19 08:51:10;;;;;;;17.87;10.93;;;15.50;95.20;;;;;;4988165;28;20431;-61
2021/09/19 08:53:35;;;;;;;18.07;11.40;;;15.50;94.90;;;;;;4986595;28;20201;-58
2021/09/19 08:56:02;;;;;;;16.47;11.27;;;15.60;95.70;;;;;;4978945;28;20514;-60
2021/09/19 08:58:28;;;;;;;17.70;10.50;;;15.70;95.70;;;;;;4980173;28;20200;-59
2021/09/19 09:00:54;;;;;;;15.90;10.90;;;15.90;95.70;;;;;;4965016;28;20497;-60
2021/09/19 09:03:23;;;;;;;13.87;10.87;;;16.10;94.30;;;;;;4979576;28;20410;-59
2021/09/19 09:06:02;;;;;;;13.83;10.43;;;16.10;92.30;;;;;;4981872;28;20224;-59
2021/09/19 09:08:29;;;;;;;14.37;10.10;;;16.20;92.70;;;;;;4964587;28;20563;-60
2021/09/19 09:10:56;;;;;;;13.60;10.27;;;16.30;91.70;;;;;;4981857;28;20437;-59
2021/09/19 09:13:25;;;;;;;13.70;9.20;;;16.50;91.70;;;;;;4963772;28;20499;-60
2021/09/19 09:16:11;;;;;;;12.10;9.70;;;16.60;91.30;;;;;;4980975;28;20515;-59
2021/09/19 09:18:41;;;;;;;13.87;9.83;;;16.80;90.20;;;;;;4981195;28;20436;-59
2021/09/19 09:21:17;;;;;;;11.93;9.10;;;16.90;83.60;;;;;;4982528;28;20425;-59
2021/09/19 09:23:48;;;;;;;13.87;8.93;;;17.00;84.80;;;;;;4979701;28;20463;-59
2021/09/19 09:26:26;;;;;;;12.43;9.00;;;17.10;81.80;;;;;;4982995;28;20494;-59
2021/09/19 09:28:55;;;;;;;10.60;8.37;;;17.20;80.70;;;;;;4978828;28;20440;-59
2021/09/19 09:31:28;;;;;;;15.57;8.00;;;17.40;81.80;;;;;;4980630;28;20476;-58
2021/09/19 09:34:01;;;;;;;10.37;8.27;;;17.40;82.40;;;;;;4982067;28;20887;-60
2021/09/19 09:36:38;;;;;;;13.33;8.70;;;17.60;81.70;;;;;;4980711;28;20558;-56
2021/09/19 09:39:23;;;;;;;12.37;8.17;;;17.70;82.60;;;;;;4977590;28;21048;-60
2021/09/19 09:41:50;;;;;;;14.13;9.77;;;17.90;80.50;;;;;;4981175;28;20525;-59
2021/09/19 09:44:32;;;;;;;13.70;9.47;;;18.00;77.90;;;;;;4981996;28;20476;-61
2021/09/19 09:46:59;;;;;;;11.77;8.90;;;18.10;78.20;;;;;;4970227;28;21245;-56
2021/09/19 09:49:42;;;;;;;16.33;9.50;;;18.10;75.30;;;;;;4980137;28;20948;-55
2021/09/19 09:52:29;;;;;;;9.80;8.30;;;18.30;74.20;;;;;;4983817;28;20433;-55
2021/09/19 09:55:02;;;;;;;10.83;8.40;;;18.40;70.70;;;;;;4970992;28;20452;-58
2021/09/19 09:57:35;;;;;;;16.00;7.97;;;18.50;70.60;;;;;;4981321;28;20460;-58
2021/09/19 10:00:10;;;;;;;9.30;7.80;;;18.70;73.80;;;;;;4965772;28;20884;-57
2021/09/19 10:02:38;;;;;;;10.00;8.30;;;18.90;72.00;;;;;;4973883;28;20437;-56
2021/09/19 10:05:05;;;;;;;10.07;7.30;;;19.00;66.30;;;;;;4971936;28;22867;-60
2021/09/19 10:07:31;;;;;;;10.10;7.80;;;19.10;67.40;;;;;;4975374;28;20433;-60
2021/09/19 10:09:58;;;;;;;8.77;6.60;;;19.20;66.70;;;;;;4974931;28;20435;-58
2021/09/19 10:12:24;;;;;;;10.03;7.33;;;19.40;66.40;;;;;;4975674;28;20178;-59
2021/09/19 10:14:54;;;;;;;9.50;7.17;;;19.60;67.70;;;;;;4956170;28;20444;-58
2021/09/19 10:17:24;;;;;;;9.63;7.13;;;19.80;67.40;;;;;;4974595;28;20186;-61
2021/09/19 10:19:51;;;;;;;8.97;6.27;;;19.90;64.30;;;;;;4977203;28;20426;-59
2021/09/19 10:22:25;;;;;;;11.40;7.63;;;19.80;62.40;;;;;;4977783;28;20464;-59
2021/09/19 10:24:51;;;;;;;7.60;6.60;;;19.50;60.90;;;;;;4973209;28;20432;-59
2021/09/19 10:27:24;;;;;;;7.97;6.00;;;19.30;61.10;;;;;;4976820;28;20871;-58
2021/09/19 10:29:57;;;;;;;9.60;7.00;;;19.00;62.10;;;;;;4961233;28;20307;-61
2021/09/19 10:33:00;;;;;;;8.97;6.87;;;18.70;61.70;;;;;;4977655;28;20433;-61
2021/09/19 10:35:25;;;;;;;9.03;7.00;;;18.40;60.80;;;;;;4918489;29;21191;-59
2021/09/19 10:37:51;;;;;;;10.67;7.60;;;18.20;62.90;;;;;;4961322;28;20468;-60
2021/09/19 10:40:36;;;;;;;8.03;6.50;;;18.10;64.10;;;;;;4972071;28;20182;-57
2021/09/19 10:43:07;;;;;;;7.13;6.07;;;17.90;64.10;;;;;;4975529;28;20263;-61
2021/09/19 10:45:45;;;;;;;8.67;7.13;;;17.90;65.40;;;;;;4958771;28;20433;-62
2021/09/19 10:48:25;;;;;;;9.80;7.83;;;17.80;66.00;;;;;;4972099;28;20530;-61
2021/09/19 10:51:04;;;;;;;10.50;7.63;;;17.70;65.90;;;;;;4976490;28;20432;-60
2021/09/19 10:53:30;;;;;;;8.30;6.30;;;17.60;66.20;;;;;;4975279;28;21325;-61
2021/09/19 10:55:58;;;;;;;8.97;6.90;;;17.50;67.00;;;;;;4977082;28;20567;-60
2021/09/19 10:58:37;;;;;;;9.00;6.90;;;17.50;67.90;;;;;;4961644;28;21036;-58
2021/09/19 11:01:12;;;;;;;9.00;6.80;;;17.50;67.50;;;;;;4982760;28;20899;-60
2021/09/19 11:03:48;;;;;;;8.93;7.03;;;17.50;67.00;;;;;;4980828;28;20469;-60
2021/09/19 11:06:22;;;;;;;13.53;7.20;;;17.40;66.80;;;;;;4980373;28;20525;-60
2021/09/19 11:08:48;;;;;;;11.83;8.30;;;17.40;66.50;;;;;;4980188;28;20515;-59
2021/09/19 11:11:19;;;;;;;13.63;7.17;;;17.30;66.40;;;;;;4972621;28;20532;-61
2021/09/19 11:13:53;;;;;;;13.30;7.97;;;17.20;67.50;;;;;;4981695;28;20267;-59
2021/09/19 11:16:21;;;;;;;9.83;7.80;;;17.10;68.10;;;;;;4979339;28;20460;-59
2021/09/19 11:18:55;;;;;;;11.43;7.17;;;17.10;68.00;;;;;;4970905;28;22354;-55
2021/09/19 11:21:21;;;;;;;10.30;7.13;;;17.10;69.10;;;;;;4962299;28;20964;-57
2021/09/19 11:24:06;;;;;;;12.23;6.60;;;17.10;68.90;;;;;;4980979;28;20543;-56
2021/09/19 11:26:34;;;;;;;8.00;7.00;;;17.10;69.40;;;;;;4980462;28;20197;-59
2021/09/19 11:29:07;;;;;;;12.40;7.43;;;17.10;69.80;;;;;;4979610;28;20438;-61
2021/09/19 11:31:33;;;;;;;9.97;7.70;;;17.10;68.90;;;;;;4977301;28;20527;-57
2021/09/19 11:34:02;;;;;;;8.37;6.60;;;17.10;68.80;;;;;;4982410;28;20448;-59
2021/09/19 11:36:28;;;;;;;9.10;6.97;;;17.20;69.70;;;;;;4974139;28;20460;-59
2021/09/19 11:38:55;;;;;;;9.53;7.07;;;17.20;69.20;;;;;;4963265;28;20534;-60
2021/09/19 11:41:22;;;;;;;16.07;7.10;;;17.20;70.50;;;;;;4982672;28;20924;-60
2021/09/19 11:43:53;;;;;;;7.17;5.80;;;17.20;71.60;;;;;;4978842;28;20284;-60
2021/09/19 11:46:21;;;;;;;10.10;6.90;;;17.30;72.40;;;;;;4976373;28;20428;-61
2021/09/19 11:48:47;;;;;;;11.03;7.00;;;17.30;73.80;;;;;;4976461;28;20522;-59
2021/09/19 11:51:16;;;;;;;10.30;6.93;;;17.40;75.40;;;;;;4974693;28;20432;-59
2021/09/19 11:54:00;;;;;;;9.57;6.70;;;17.40;76.00;;;;;;4976243;28;20452;-60
2021/09/19 11:56:27;;;;;;;8.00;6.63;;;17.40;76.00;;;;;;4981381;28;20456;-61
2021/09/19 11:58:54;;;;;;;7.00;5.77;;;17.40;75.80;;;;;;4988203;28;20488;-60
2021/09/19 12:01:28;;;;;;;4.00;3.60;;;17.40;76.30;;;;;;4982191;28;20988;-59
2021/09/19 12:04:04;;;;;;;3.80;3.20;;;17.40;78.30;;;;;;4983623;28;20450;-60
2021/09/19 12:06:31;;;;;;;7.83;5.80;;;17.30;80.20;;;;;;4985802;28;20439;-59
2021/09/19 12:08:57;;;;;;;2.97;2.57;;;17.30;81.00;;;;;;4959838;28;20602;-55
2021/09/19 12:11:37;;;;;;;3.47;2.73;;;17.20;81.30;;;;;;4980260;28;20922;-54
2021/09/19 12:14:14;;;;;;;2.43;2.23;;;17.10;82.70;;;;;;4981983;28;21584;-55
2021/09/19 12:16:40;;;;;;;2.27;1.87;;;17.00;83.90;;;;;;4981361;28;20920;-55
2021/09/19 12:19:19;;;;;;;2.40;1.70;;;16.90;82.80;;;;;;4985472;28;20523;-53
2021/09/19 12:22:12;;;;;;;2.17;1.97;;;16.70;83.10;;;;;;4981661;28;20439;-59
2021/09/19 12:24:38;;;;;;;2.00;1.80;;;16.50;84.50;;;;;;4962582;28;20483;-60
2021/09/19 12:27:14;;;;;;;1.43;1.33;;;16.30;85.70;;;;;;4990729;28;20800;-58
2021/09/19 12:29:42;;;;;;;1.47;1.37;;;16.10;88.10;;;;;;4989849;28;20230;-60
2021/09/19 12:32:08;;;;;;;1.00;1.00;;;16.00;90.10;;;;;;4989429;28;20957;-59
2021/09/19 12:34:34;;;;;;;1.27;1.17;;;15.90;90.60;;;;;;4984738;28;20471;-58
2021/09/19 12:36:59;;;;;;;2.00;1.30;;;15.80;91.20;;;;;;4984624;28;20701;-59
2021/09/19 12:39:31;;;;;;;2.40;1.10;;;15.70;91.60;;;;;;4984907;28;20173;-59
2021/09/19 12:42:05;;;;;;;1.53;1.23;;;15.60;92.10;;;;;;4961069;28;20244;-57
2021/09/19 12:44:35;;;;;;;2.80;1.53;;;15.50;92.80;;;;;;4979277;28;20463;-58
2021/09/19 12:47:06;;;;;;;1.40;1.20;;;15.40;93.30;;;;;;4980712;28;20442;-59